Language: 


Des rapports , des résumés tant et plus, au choix de chacun....


Données statistiques de la station
Quotidien Rapport Janvier 20, 2018 Unités:  Métrique    Anglais   les deux
« Précédent Jour
Suivant Jour »
Quotidien Hebdomadaire Mensuel Annuel Actuel
  Haut: Bas: Moyen:
Température: -17.8 °C -17.6 °C -15.8 °C
Pt de rosée: -17.8 °C -17.8 °C -15.8 °C
Humidité: Humidity % 93 % 97 %
Vitesse du vent: 0 km/h 0 km/h 5.1 km/h
Rafales: 0 km/h - -
Vent:- - SSE
Pression: 0 hPa 33731.3 hPa -
Précipitation: 180.34 mm    
Historical Graphs
 
 
Données statistiques pour Janvier 20, 2018
Heure Température Point de rosée Pression Vent Vitesse du vent Refales Humidité Pluie (taux horaire)
-17.8 °C -17.8 °C 0 hPa Calm     Humidity % 0 mm
00:03 -17.3 °C -17.8 °C 34198.6 hPa Calm   11.1 km/h 93 % 0 mm
00:08 -17.3 °C -17.8 °C 34198.6 hPa Calm   11.1 km/h 94 % 0 mm
00:13 -17.3 °C -17.8 °C 34198.6 hPa WSW 4.2 km/h 9.3 km/h 94 % 0 mm
00:18 -17.2 °C -17.8 °C 34198.6 hPa Calm   4.2 km/h 94 % 0 mm
00:23 -17.2 °C -17.8 °C 34198.6 hPa West 11.1 km/h 11.1 km/h 94 % 0 mm
00:28 -17.2 °C -17.8 °C 34198.6 hPa Calm   12.2 km/h 94 % 0 mm
00:33 -17.2 °C -17.8 °C 34164.7 hPa WSW 7.6 km/h 12.2 km/h 94 % 0 mm
00:38 -17.1 °C -17.2 °C 34164.7 hPa Calm   9.8 km/h 94 % 0 mm
00:43 -17.1 °C -17.2 °C 34164.7 hPa Calm   9.8 km/h 94 % 0 mm
00:48 -17.1 °C -17.2 °C 34164.7 hPa Calm   6.9 km/h 95 % 0 mm
00:53 -17.1 °C -17.2 °C 34164.7 hPa Calm   6.9 km/h 95 % 0 mm
00:58 -17.1 °C -17.2 °C 34164.7 hPa Calm   8 km/h 95 % 0 mm
01:03 -17.1 °C -17.2 °C 34164.7 hPa Calm   8 km/h 95 % 0 mm
01:08 -17.1 °C -17.2 °C 34164.7 hPa West 6.9 km/h 8 km/h 94 % 0 mm
01:14 -17.1 °C -17.2 °C 34164.7 hPa Calm   11.1 km/h 94 % 0 mm
01:19 -17.1 °C -17.2 °C 34164.7 hPa Calm   11.1 km/h 94 % 0 mm
01:24 -17.1 °C -17.2 °C 34164.7 hPa SW 2.9 km/h 10.3 km/h 94 % 0 mm
01:29 -17.1 °C -17.2 °C 34164.7 hPa WSW 14 km/h 14 km/h 95 % 0 mm
01:34 -17 °C -17.2 °C 34164.7 hPa Calm   14 km/h 95 % 0 mm
01:39 -16.9 °C -17.2 °C 34164.7 hPa Calm   12.7 km/h 96 % 0 mm
01:44 -16.9 °C -17.2 °C 34130.9 hPa WSW 9.3 km/h 14.5 km/h 96 % 0 mm
01:49 -16.8 °C -17.2 °C 34130.9 hPa Calm   14.5 km/h 96 % 0 mm
01:54 -16.9 °C -17.2 °C 34130.9 hPa Calm   14 km/h 96 % 0 mm
01:59 -16.9 °C -17.2 °C 34164.7 hPa Calm   2.9 km/h 96 % 0 mm
02:04 -16.9 °C -17.2 °C 34164.7 hPa Calm   6.4 km/h 96 % 0 mm
02:09 -16.9 °C -17.2 °C 34164.7 hPa WSW 6.9 km/h 8.9 km/h 95 % 0 mm
02:14 -17 °C -17.2 °C 34164.7 hPa Calm   8.9 km/h 95 % 0 mm
02:19 -17.1 °C -17.2 °C 34164.7 hPa Calm   3.4 km/h 95 % 0 mm
02:24 -17.2 °C -17.8 °C 34164.7 hPa Calm     94 % 0 mm
02:29 -17.2 °C -17.2 °C 34130.9 hPa Calm   6.4 km/h 95 % 0 mm
02:34 -17.2 °C -17.8 °C 34130.9 hPa Calm   6.4 km/h 94 % 0 mm
02:39 -17.3 °C -17.2 °C 34130.9 hPa Calm   3.4 km/h 95 % 0 mm
02:44 -17.4 °C -17.8 °C 34164.7 hPa Calm     94 % 0 mm
02:49 -17.5 °C -17.8 °C 34164.7 hPa Calm   4.2 km/h 94 % 0 mm
02:54 -17.6 °C -17.8 °C 34164.7 hPa Calm   4.2 km/h 94 % 0 mm
02:59 -17.6 °C -17.8 °C 34164.7 hPa Calm   4.2 km/h 94 % 0 mm
03:04 -17.6 °C -17.8 °C 34164.7 hPa Calm   4.2 km/h 95 % 0 mm
03:09 -17.6 °C -17.8 °C 34164.7 hPa Calm     95 % 0 mm
03:14 -17.6 °C -17.8 °C 34164.7 hPa Calm     95 % 0 mm
03:20 -17.6 °C -17.8 °C 34164.7 hPa Calm     96 % 0 mm
03:25 -17.6 °C -17.8 °C 34164.7 hPa Calm     96 % 0 mm
03:30 -17.6 °C -17.8 °C 34130.9 hPa Calm     97 % 0 mm
03:35 -17.6 °C -17.8 °C 34130.9 hPa Calm     97 % 0 mm
03:40 -17.5 °C -17.2 °C 34130.9 hPa Calm   9.8 km/h 97 % 0 mm
03:45 -17.3 °C -17.2 °C 34130.9 hPa Calm   9.8 km/h 98 % 0 mm
03:50 -17.3 °C -17.2 °C 34130.9 hPa SSW 5.1 km/h 5.6 km/h 98 % 0 mm
03:55 -17.3 °C -17.2 °C 34130.9 hPa North 8.9 km/h 8.9 km/h 98 % 0 mm
04:00 -17.3 °C -17.2 °C 34097 hPa South 6.9 km/h 12.2 km/h 98 % 0 mm
04:05 -17.2 °C -17.2 °C 34097 hPa Calm   12.2 km/h 98 % 0 mm
04:10 -17.2 °C -17.2 °C 34097 hPa Calm   11.1 km/h 98 % 0 mm
04:15 -17.2 °C -17.2 °C 34130.9 hPa Calm   4.2 km/h 98 % 0 mm
04:20 -17.2 °C -17.2 °C 34130.9 hPa Calm     98 % 0 mm
04:25 -17.1 °C -17.2 °C 34130.9 hPa Calm     98 % 0 mm
04:30 -17.1 °C -17.2 °C 34097 hPa Calm   7.6 km/h 98 % 0 mm
04:35 -17.1 °C -17.2 °C 34097 hPa Calm   8 km/h 98 % 0 mm
04:40 -17.1 °C -17.2 °C 34097 hPa SSW 5.6 km/h 8 km/h 98 % 0 mm
04:45 -17 °C -17.2 °C 34097 hPa Calm   8 km/h 98 % 0 mm
04:50 -16.9 °C -16.7 °C 34097 hPa SSW 8 km/h 8 km/h 98 % 0 mm
04:55 -16.9 °C -16.7 °C 34097 hPa SSW 9.8 km/h 12.2 km/h 98 % 0 mm
05:01 -16.8 °C -16.7 °C 34097 hPa South 8.9 km/h 16.9 km/h 98 % 0 mm
05:06 -16.7 °C -16.7 °C 34097 hPa South 12.7 km/h 16.9 km/h 98 % 0 mm
05:11 -16.6 °C -16.7 °C 34097 hPa SSW 11.1 km/h 16.9 km/h 98 % 0 mm
05:16 -16.6 °C -16.7 °C 34097 hPa SSW 16.9 km/h 17.4 km/h 98 % 0 mm
05:21 -16.4 °C -16.1 °C 34097 hPa SW 15.6 km/h 25.4 km/h 98 % 7.62 mm
05:26 -16.3 °C -16.1 °C 34097 hPa Calm   25.4 km/h 98 % 12.7 mm
05:31 -16.3 °C -16.1 °C 34097 hPa SW 7.6 km/h 20.9 km/h 98 % 12.7 mm
05:36 -16.3 °C -16.1 °C 34097 hPa Calm   16.9 km/h 98 % 12.7 mm
05:41 -16.2 °C -16.1 °C 34097 hPa SW 12.2 km/h 14 km/h 98 % 12.7 mm
05:46 -16.2 °C -16.1 °C 34063.2 hPa SSW 2.3 km/h 14 km/h 98 % 12.7 mm
05:51 -16.2 °C -16.1 °C 34063.2 hPa South 8.9 km/h 11.1 km/h 98 % 12.7 mm
05:56 -16.2 °C -16.1 °C 34063.2 hPa SSW 8 km/h 16.9 km/h 98 % 12.7 mm
06:01 -16.2 °C -16.1 °C 34063.2 hPa SW 7.6 km/h 16.9 km/h 98 % 12.7 mm
06:06 -16.2 °C -16.1 °C 34063.2 hPa South 9.3 km/h 16.9 km/h 98 % 12.7 mm
06:11 -16.2 °C -16.1 °C 34063.2 hPa SSW 9.3 km/h 17.4 km/h 98 % 12.7 mm
06:16 -16.2 °C -16.1 °C 34029.3 hPa Calm   17.4 km/h 98 % 12.7 mm
06:21 -16.2 °C -16.1 °C 34029.3 hPa SSW 11.1 km/h 16.3 km/h 98 % 12.7 mm
06:26 -16.1 °C -16.1 °C 34029.3 hPa South 4.2 km/h 16.3 km/h 98 % 7.62 mm
06:31 -16.1 °C -16.1 °C 34029.3 hPa South 6.4 km/h 16.3 km/h 98 % 7.62 mm
06:36 -16.1 °C -16.1 °C 34029.3 hPa SSW 2.9 km/h 19.6 km/h 98 % 7.62 mm
06:41 -16.1 °C -16.1 °C 34029.3 hPa South 7.6 km/h 19.6 km/h 98 % 7.62 mm
06:46 -16.1 °C -16.1 °C 34029.3 hPa SSW 14.5 km/h 14.5 km/h 98 % 7.62 mm
06:51 -16.1 °C -16.1 °C 34029.3 hPa Calm   14.5 km/h 98 % 12.7 mm
06:56 -16.1 °C -16.1 °C 34029.3 hPa South 11.1 km/h 12.7 km/h 98 % 12.7 mm
07:01 -16.1 °C -16.1 °C 34029.3 hPa South 12.7 km/h 16.3 km/h 98 % 12.7 mm
07:07 -16.1 °C -16.1 °C 34029.3 hPa South 6.9 km/h 17.4 km/h 98 % 12.7 mm
07:12 -16 °C -16.1 °C 34029.3 hPa South 11.1 km/h 17.4 km/h 98 % 12.7 mm
07:17 -16 °C -16.1 °C 34029.3 hPa South 11.1 km/h 16.9 km/h 98 % 12.7 mm
07:22 -15.9 °C -16.1 °C 34029.3 hPa South 12.2 km/h 26.7 km/h 98 % 7.62 mm
07:27 -15.9 °C -16.1 °C 34029.3 hPa South 14.5 km/h 26.7 km/h 98 % 7.62 mm
07:32 -15.9 °C -16.1 °C 34029.3 hPa South 10.3 km/h 16.9 km/h 98 % 20.32 mm
07:37 -15.9 °C -16.1 °C 34029.3 hPa South 20.3 km/h 22 km/h 98 % 20.32 mm
07:42 -15.9 °C -16.1 °C 34029.3 hPa South 14 km/h 31.4 km/h 98 % 20.32 mm
07:47 -15.9 °C -16.1 °C 33992.1 hPa SSW 15.6 km/h 31.4 km/h 98 % 20.32 mm
07:52 -15.9 °C -16.1 °C 33992.1 hPa South 7.6 km/h 22.5 km/h 98 % 7.62 mm
07:57 -15.9 °C -16.1 °C 33992.1 hPa SSW 7.6 km/h 17.4 km/h 98 % 7.62 mm
08:02 -15.8 °C -15.6 °C 33992.1 hPa SSW 8 km/h 19.6 km/h 98 % 7.62 mm
08:07 -15.8 °C -15.6 °C 33992.1 hPa South 8 km/h 19.6 km/h 98 % 7.62 mm
08:12 -15.8 °C -15.6 °C 33992.1 hPa South 14 km/h 17.9 km/h 98 % 20.32 mm
08:17 -15.8 °C -15.6 °C 33992.1 hPa SSW 9.8 km/h 17.9 km/h 98 % 20.32 mm
08:22 -15.8 °C -15.6 °C 33992.1 hPa South 11.1 km/h 16.3 km/h 98 % 20.32 mm
08:27 -15.8 °C -15.6 °C 33992.1 hPa SSE 10.3 km/h 14 km/h 98 % 20.32 mm
08:32 -15.8 °C -15.6 °C 33958.2 hPa SSW 14 km/h 14 km/h 98 % 7.62 mm
08:37 -15.8 °C -15.6 °C 33958.2 hPa SSE 9.8 km/h 14 km/h 98 % 7.62 mm
08:42 -15.8 °C -15.6 °C 33958.2 hPa South 9.8 km/h 16.3 km/h 98 % 7.62 mm
08:47 -15.8 °C -15.6 °C 33958.2 hPa SSW 11.1 km/h 16.3 km/h 98 % 7.62 mm
08:53 -15.8 °C -15.6 °C 33958.2 hPa South 11.1 km/h 15.6 km/h 98 % 12.7 mm
08:58 -15.8 °C -15.6 °C 33958.2 hPa Calm   16.9 km/h 98 % 12.7 mm
09:03 -15.8 °C -15.6 °C 33958.2 hPa Calm   16.9 km/h 98 % 12.7 mm
09:08 -15.8 °C -15.6 °C 33958.2 hPa SSW 12.2 km/h 15 km/h 98 % 7.62 mm
09:13 -15.8 °C -15.6 °C 33958.2 hPa South 9.3 km/h 15 km/h 98 % 7.62 mm
09:18 -15.8 °C -15.6 °C 33924.3 hPa SSW 16.9 km/h 16.9 km/h 98 % 7.62 mm
09:23 -15.7 °C -15.6 °C 33924.3 hPa SSW 9.8 km/h 16.9 km/h 98 % 7.62 mm
09:28 -15.7 °C -15.6 °C 33924.3 hPa SSW 15.6 km/h 16.9 km/h 98 % 7.62 mm
09:33 -15.7 °C -15.6 °C 33924.3 hPa South 9.8 km/h 16.3 km/h 98 % 7.62 mm
09:38 -15.7 °C -15.6 °C 33924.3 hPa South 15 km/h 20.3 km/h 98 % 7.62 mm
09:43 -15.7 °C -15.6 °C 33924.3 hPa SSE 14 km/h 20.3 km/h 98 % 7.62 mm
09:48 -15.7 °C -15.6 °C 33992.1 hPa South 14.5 km/h 16.9 km/h 98 % 7.62 mm
09:53 -15.6 °C -15.6 °C 33992.1 hPa South 5.1 km/h 16.9 km/h 98 % 0 mm
09:58 -15.6 °C -15.6 °C 33992.1 hPa Calm   14.5 km/h 98 % 7.62 mm
10:03 -15.6 °C -15.6 °C 33924.3 hPa SSE 6.9 km/h 19.6 km/h 98 % 7.62 mm
10:08 -15.6 °C -15.6 °C 33924.3 hPa Calm   19.6 km/h 98 % 7.62 mm
10:13 -15.6 °C -15.6 °C 33924.3 hPa South 9.8 km/h 14 km/h 98 % 7.62 mm
10:18 -15.6 °C -15.6 °C 33924.3 hPa Calm   14 km/h 98 % 7.62 mm
10:23 -15.6 °C -15.6 °C 33924.3 hPa South 10.3 km/h 14.5 km/h 98 % 7.62 mm
10:28 -15.6 °C -15.6 °C 33924.3 hPa South 5.1 km/h 15.6 km/h 98 % 7.62 mm
10:33 -15.6 °C -15.6 °C 33924.3 hPa South 2.3 km/h 15.6 km/h 98 % 7.62 mm
10:38 -15.5 °C -15.6 °C 33924.3 hPa South 9.8 km/h 20.3 km/h 98 % 7.62 mm
10:39 -15.5 °C -15.6 °C 33924.3 hPa SSE 4.2 km/h 20.3 km/h 98 % 7.62 mm
10:44 -15.5 °C -15.6 °C 33924.3 hPa Calm   20.3 km/h 98 % 12.7 mm
10:49 -15.5 °C -15.6 °C 33924.3 hPa South 11.1 km/h 15 km/h 98 % 12.7 mm
10:54 -15.5 °C -15.6 °C 33924.3 hPa SSE 4.2 km/h 15 km/h 98 % 12.7 mm
10:59 -15.4 °C -15.6 °C 33890.5 hPa Calm   14.5 km/h 98 % 7.62 mm
11:04 -15.4 °C -15.6 °C 33890.5 hPa Calm   11.6 km/h 98 % 12.7 mm
11:09 -15.4 °C -15.6 °C 33890.5 hPa South 12.2 km/h 12.2 km/h 98 % 12.7 mm
11:14 -15.4 °C -15.6 °C 33890.5 hPa SSE 6.9 km/h 12.7 km/h 98 % 12.7 mm
11:19 -15.4 °C -15.6 °C 33890.5 hPa Calm   12.7 km/h 98 % 12.7 mm
11:24 -15.4 °C -15.6 °C 33890.5 hPa Calm   15 km/h 98 % 20.32 mm
11:29 -15.3 °C -15.6 °C 33856.6 hPa SSE 7.6 km/h 15 km/h 98 % 20.32 mm
11:34 -15.3 °C -15.6 °C 33856.6 hPa Calm   11.6 km/h 98 % 33.02 mm
11:39 -15.3 °C -15.6 °C 33856.6 hPa South 9.8 km/h 10.3 km/h 98 % 33.02 mm
11:44 -15.3 °C -15 °C 33890.5 hPa Calm   9.8 km/h 98 % 25.4 mm
11:49 -15.3 °C -15 °C 33890.5 hPa Calm   11.1 km/h 98 % 33.02 mm
11:54 -15.2 °C -15 °C 33890.5 hPa ESE 6.4 km/h 16.9 km/h 98 % 33.02 mm
11:59 -15.2 °C -15 °C 33856.6 hPa SSE 7.6 km/h 16.9 km/h 98 % 33.02 mm
12:04 -15.2 °C -15 °C 33856.6 hPa Calm   16.3 km/h 98 % 25.4 mm
12:09 -15.2 °C -15 °C 33856.6 hPa Calm   15.6 km/h 98 % 25.4 mm
12:14 -15.2 °C -15 °C 33856.6 hPa SSE 2.9 km/h 16.3 km/h 98 % 33.02 mm
12:19 -15.2 °C -15 °C 33856.6 hPa Calm   16.3 km/h 98 % 25.4 mm
12:25 -15.1 °C -15 °C 33856.6 hPa Calm   8.9 km/h 98 % 25.4 mm
12:30 -15.1 °C -15 °C 33822.8 hPa Calm   11.1 km/h 98 % 25.4 mm
12:35 -15.1 °C -15 °C 33822.8 hPa ESE 6.9 km/h 11.1 km/h 98 % 12.7 mm
12:40 -15.1 °C -15 °C 33822.8 hPa South 10.3 km/h 16.9 km/h 98 % 12.7 mm
12:45 -15 °C -15 °C 33788.9 hPa Calm   16.9 km/h 98 % 20.32 mm
12:50 -15 °C -15 °C 33788.9 hPa East 5.1 km/h 10.3 km/h 98 % 12.7 mm
12:55 -15 °C -15 °C 33788.9 hPa ESE 3.4 km/h 10.3 km/h 98 % 12.7 mm
13:00 -15 °C -15 °C 33822.8 hPa ESE 3.4 km/h 10.3 km/h 98 % 12.7 mm
13:05 -15 °C -15 °C 33822.8 hPa Calm   10.3 km/h 98 % 12.7 mm
13:10 -14.9 °C -15 °C 33822.8 hPa ESE 7.6 km/h 14.5 km/h 98 % 7.62 mm
13:15 -14.9 °C -15 °C 33822.8 hPa ESE 8 km/h 15.6 km/h 98 % 12.7 mm
13:20 -14.9 °C -15 °C 33822.8 hPa SSE 8 km/h 15.6 km/h 98 % 12.7 mm
13:25 -14.9 °C -15 °C 33822.8 hPa Calm   15 km/h 98 % 12.7 mm
13:30 -14.9 °C -15 °C 33788.9 hPa Calm   12.2 km/h 98 % 12.7 mm
13:35 -14.9 °C -15 °C 33788.9 hPa Calm   12.2 km/h 98 % 12.7 mm
13:40 -14.8 °C -14.4 °C 33788.9 hPa ESE 8.9 km/h 12.2 km/h 98 % 20.32 mm
13:45 -14.8 °C -14.4 °C 33788.9 hPa ESE 7.6 km/h 9.8 km/h 98 % 12.7 mm
13:50 -14.8 °C -14.4 °C 33788.9 hPa East 12.7 km/h 12.7 km/h 98 % 12.7 mm
13:55 -14.8 °C -14.4 °C 33788.9 hPa East 3.4 km/h 12.7 km/h 98 % 12.7 mm
13:56 -14.8 °C -14.4 °C 33788.9 hPa Calm   12.7 km/h 98 % 12.7 mm
14:01 -14.8 °C -14.4 °C 33788.9 hPa ENE 8.9 km/h 11.1 km/h 98 % 12.7 mm
14:06 -14.8 °C -14.4 °C 33788.9 hPa Calm   11.1 km/h 98 % 12.7 mm
14:11 -14.8 °C -14.4 °C 33788.9 hPa ENE 5.1 km/h 8.9 km/h 98 % 12.7 mm
14:16 -14.8 °C -14.4 °C 33788.9 hPa East 11.1 km/h 11.6 km/h 98 % 12.7 mm
14:22 -14.8 °C -14.4 °C 33788.9 hPa Calm   11.6 km/h 98 % 12.7 mm
14:27 -14.8 °C -14.4 °C 33788.9 hPa Calm   14.5 km/h 98 % 12.7 mm
14:32 -14.8 °C -14.4 °C 33751.6 hPa East 8.9 km/h 14.5 km/h 98 % 12.7 mm
14:37 -14.8 °C -14.4 °C 33751.6 hPa East 6.9 km/h 10.3 km/h 98 % 25.4 mm
14:42 -14.8 °C -14.4 °C 33751.6 hPa NE 14 km/h 14.5 km/h 98 % 20.32 mm
14:47 -14.8 °C -14.4 °C 33751.6 hPa ENE 6.4 km/h 14.5 km/h 98 % 20.32 mm
14:52 -14.8 °C -14.4 °C 33751.6 hPa NE 6.4 km/h 14.5 km/h 98 % 20.32 mm
14:57 -14.8 °C -14.4 °C 33751.6 hPa ESE 2.9 km/h 14.5 km/h 98 % 20.32 mm
15:02 -14.8 °C -14.4 °C 33751.6 hPa East 9.3 km/h 12.2 km/h 98 % 20.32 mm
15:07 -14.7 °C -14.4 °C 33751.6 hPa Calm   12.2 km/h 98 % 7.62 mm
15:12 -14.7 °C -14.4 °C 33751.6 hPa East 8.9 km/h 12.2 km/h 98 % 7.62 mm
15:17 -14.6 °C -14.4 °C 33751.6 hPa Calm   12.2 km/h 98 % 7.62 mm
15:22 -14.7 °C -14.4 °C 33751.6 hPa Calm   14 km/h 98 % 7.62 mm
15:27 -14.7 °C -14.4 °C 33751.6 hPa ENE 3.4 km/h 14 km/h 98 % 7.62 mm
15:32 -14.7 °C -14.4 °C 33731.3 hPa ENE 8 km/h 11.1 km/h 98 % 7.62 mm
15:37 -14.7 °C -14.4 °C 33731.3 hPa Calm   11.1 km/h 98 % 0 mm
15:42 -14.7 °C -14.4 °C 33731.3 hPa Calm   8.9 km/h 98 % 7.62 mm
15:47 -14.7 °C -14.4 °C 33751.6 hPa Calm     98 % 7.62 mm
15:52 -14.7 °C -14.4 °C 33751.6 hPa Calm   9.8 km/h 98 % 7.62 mm
15:58 -14.8 °C -14.4 °C 33751.6 hPa Calm   9.8 km/h 98 % 7.62 mm
16:03 -14.8 °C -14.4 °C 33751.6 hPa East 8 km/h 8 km/h 98 % 7.62 mm
16:08 -14.8 °C -14.4 °C 33751.6 hPa Calm   8 km/h 98 % 7.62 mm
16:13 -14.8 °C -14.4 °C 33751.6 hPa Calm   8 km/h 98 % 7.62 mm
16:18 -14.8 °C -14.4 °C 33751.6 hPa Calm   8.9 km/h 98 % 7.62 mm
16:23 -14.8 °C -14.4 °C 33751.6 hPa Calm   9.3 km/h 98 % 7.62 mm
16:28 -14.8 °C -14.4 °C 33751.6 hPa Calm   9.3 km/h 98 % 7.62 mm
16:33 -14.8 °C -14.4 °C 33751.6 hPa Calm   8.9 km/h 98 % 7.62 mm
16:38 -14.8 °C -14.4 °C 33751.6 hPa Calm     98 % 7.62 mm
16:43 -14.8 °C -14.4 °C 33751.6 hPa Calm     98 % 0 mm
16:48 -14.8 °C -14.4 °C 33788.9 hPa Calm     98 % 0 mm
16:53 -14.8 °C -14.4 °C 33788.9 hPa Calm     98 % 0 mm
16:58 -14.8 °C -14.4 °C 33788.9 hPa Calm     98 % 0 mm
17:03 -14.9 °C -15 °C 33788.9 hPa Calm     98 % 7.62 mm
17:08 -14.9 °C -15 °C 33788.9 hPa Calm     98 % 7.62 mm
17:13 -14.9 °C -15 °C 33788.9 hPa Calm   8 km/h 98 % 7.62 mm
17:18 -14.9 °C -15 °C 33788.9 hPa Calm   8 km/h 98 % 7.62 mm
17:23 -15 °C -15 °C 33788.9 hPa Calm     98 % 7.62 mm
17:28 -15 °C -15 °C 33788.9 hPa Calm     98 % 7.62 mm
17:33 -15 °C -15 °C 33788.9 hPa Calm     98 % 7.62 mm
17:38 -15.1 °C -15 °C 33788.9 hPa Calm     98 % 7.62 mm
17:44 -15.1 °C -15 °C 33788.9 hPa Calm     98 % 7.62 mm
17:49 -15.1 °C -15 °C 33788.9 hPa Calm     98 % 7.62 mm
17:54 -15.1 °C -15 °C 33788.9 hPa Calm     98 % 12.7 mm
17:59 -15.1 °C -15 °C 33788.9 hPa Calm     98 % 12.7 mm
18:04 -15.1 °C -15 °C 33788.9 hPa Calm     98 % 7.62 mm
18:09 -15.1 °C -15 °C 33788.9 hPa Calm     98 % 7.62 mm
18:14 -15.1 °C -15 °C 33822.8 hPa Calm     98 % 7.62 mm
18:19 -15.1 °C -15 °C 33822.8 hPa Calm     98 % 7.62 mm
18:24 -15.1 °C -15 °C 33822.8 hPa Calm     98 % 7.62 mm
18:29 -15.1 °C -15 °C 33822.8 hPa Calm     98 % 7.62 mm
18:34 -15.1 °C -15 °C 33822.8 hPa Calm     98 % 7.62 mm
18:39 -15.1 °C -15 °C 33822.8 hPa Calm   6.4 km/h 98 % 7.62 mm
18:44 -15.1 °C -15 °C 33822.8 hPa Calm   9.3 km/h 98 % 7.62 mm
18:49 -15.2 °C -15 °C 33822.8 hPa Calm   10.3 km/h 98 % 7.62 mm
18:54 -15.2 °C -15 °C 33822.8 hPa Calm   10.3 km/h 98 % 7.62 mm
18:59 -15.2 °C -15 °C 33822.8 hPa Calm   8.9 km/h 98 % 7.62 mm
19:04 -15.2 °C -15 °C 33822.8 hPa Calm   5.1 km/h 98 % 7.62 mm
19:09 -15.2 °C -15 °C 33822.8 hPa NE 9.3 km/h 9.3 km/h 98 % 7.62 mm
19:14 -15.2 °C -15 °C 33822.8 hPa NNE 2.3 km/h 9.3 km/h 98 % 7.62 mm
19:19 -15.2 °C -15 °C 33822.8 hPa NE 6.4 km/h 12.7 km/h 98 % 7.62 mm
19:24 -15.2 °C -15 °C 33822.8 hPa NE 14.5 km/h 14.5 km/h 98 % 7.62 mm
19:29 -15.2 °C -15 °C 33822.8 hPa Calm   14.5 km/h 98 % 7.62 mm
19:34 -15.2 °C -15 °C 33822.8 hPa NE 11.1 km/h 14.5 km/h 98 % 7.62 mm
19:39 -15.2 °C -15 °C 33822.8 hPa NE 11.1 km/h 15 km/h 98 % 7.62 mm
19:44 -15.3 °C -15 °C 33856.6 hPa North 16.3 km/h 16.3 km/h 98 % 7.62 mm
19:49 -15.3 °C -15 °C 33856.6 hPa Calm   16.3 km/h 98 % 0 mm
19:54 -15.3 °C -15 °C 33856.6 hPa NNE 2.3 km/h 15.6 km/h 98 % 0 mm
20:00 -15.3 °C -15 °C 33856.6 hPa Calm   15.6 km/h 98 % 0 mm
20:05 -15.3 °C -15.6 °C 33856.6 hPa Calm   10.3 km/h 98 % 0 mm
20:10 -15.3 °C -15.6 °C 33856.6 hPa Calm   14.5 km/h 98 % 0 mm
20:15 -15.3 °C -15.6 °C 33890.5 hPa NNE 4.2 km/h 14.5 km/h 98 % 0 mm
20:20 -15.3 °C -15.6 °C 33890.5 hPa NE 3.4 km/h 16.3 km/h 98 % 0 mm
20:25 -15.4 °C -15.6 °C 33890.5 hPa NNE 12.7 km/h 19.2 km/h 98 % 0 mm
20:30 -15.4 °C -15.6 °C 33890.5 hPa NNE 12.7 km/h 19.2 km/h 98 % 0 mm
20:35 -15.4 °C -15.6 °C 33890.5 hPa NE 14 km/h 19.2 km/h 98 % 0 mm
20:40 -15.4 °C -15.6 °C 33890.5 hPa North 12.7 km/h 16.9 km/h 98 % 0 mm
20:45 -15.4 °C -15.6 °C 33890.5 hPa NE 8 km/h 18.7 km/h 98 % 0 mm
20:51 -15.4 °C -15.6 °C 33890.5 hPa NNE 8 km/h 18.7 km/h 98 % 0 mm
20:56 -15.5 °C -15.6 °C 33890.5 hPa NNE 14.5 km/h 16.9 km/h 98 % 0 mm
21:01 -15.5 °C -15.6 °C 33890.5 hPa Calm   16.3 km/h 98 % 0 mm
21:06 -15.5 °C -15.6 °C 33890.5 hPa NE 14 km/h 16.3 km/h 98 % 0 mm
21:11 -15.6 °C -15.6 °C 33890.5 hPa NE 4.2 km/h 16.3 km/h 98 % 0 mm
21:16 -15.6 °C -15.6 °C 33924.3 hPa NNW 15 km/h 16.9 km/h 98 % 0 mm
21:21 -15.6 °C -15.6 °C 33924.3 hPa ENE 8.9 km/h 16.9 km/h 98 % 0 mm
21:26 -15.6 °C -15.6 °C 33924.3 hPa NNE 6.9 km/h 15.6 km/h 98 % 0 mm
21:31 -15.6 °C -15.6 °C 33958.2 hPa NNE 6.9 km/h 15 km/h 98 % 0 mm
21:36 -15.7 °C -15.6 °C 33958.2 hPa NNE 7.6 km/h 15 km/h 98 % 0 mm
21:41 -15.7 °C -15.6 °C 33958.2 hPa North 3.4 km/h 14.5 km/h 98 % 0 mm
21:46 -15.7 °C -15.6 °C 33958.2 hPa North 11.1 km/h 14.5 km/h 98 % 0 mm
21:51 -15.7 °C -15.6 °C 33958.2 hPa NNE 14 km/h 15 km/h 98 % 0 mm
21:56 -15.7 °C -15.6 °C 33958.2 hPa North 9.8 km/h 15 km/h 98 % 0 mm
22:01 -15.7 °C -15.6 °C 33958.2 hPa North 12.7 km/h 15.6 km/h 98 % 0 mm
22:06 -15.7 °C -15.6 °C 33958.2 hPa NE 10.3 km/h 19.6 km/h 98 % 0 mm
22:11 -15.7 °C -15.6 °C 33958.2 hPa North 11.1 km/h 19.6 km/h 98 % 0 mm
22:17 -15.7 °C -15.6 °C 33958.2 hPa NNE 12.7 km/h 19.2 km/h 98 % 0 mm
22:22 -15.8 °C -15.6 °C 33958.2 hPa North 15.6 km/h 20.9 km/h 98 % 0 mm
22:27 -15.8 °C -15.6 °C 33958.2 hPa North 10.3 km/h 27.2 km/h 98 % 0 mm
22:32 -15.8 °C -15.6 °C 33992.1 hPa North 10.3 km/h 27.2 km/h 98 % 0 mm
22:37 -15.9 °C -16.1 °C 33992.1 hPa North 19.6 km/h 20.3 km/h 98 % 0 mm
22:42 -15.9 °C -16.1 °C 33992.1 hPa NE 16.9 km/h 22 km/h 98 % 0 mm
22:47 -15.9 °C -16.1 °C 34029.3 hPa North 22 km/h 22 km/h 98 % 0 mm
22:52 -15.9 °C -16.1 °C 34029.3 hPa NE 19.2 km/h 22 km/h 98 % 0 mm
22:57 -15.9 °C -16.1 °C 34029.3 hPa North 18.7 km/h 22 km/h 98 % 0 mm
23:02 -15.9 °C -16.1 °C 33992.1 hPa NNE 11.1 km/h 19.2 km/h 98 % 0 mm
23:07 -15.9 °C -16.1 °C 33992.1 hPa NNW 9.3 km/h 18.7 km/h 98 % 0 mm
23:12 -15.9 °C -16.1 °C 33992.1 hPa NNW 9.3 km/h 12.2 km/h 98 % 0 mm
23:17 -15.9 °C -16.1 °C 34029.3 hPa Calm   9.3 km/h 98 % 0 mm
23:22 -15.9 °C -16.1 °C 34029.3 hPa North 2.3 km/h 9.3 km/h 98 % 0 mm
23:28 -15.9 °C -16.1 °C 34029.3 hPa Calm   2.3 km/h 98 % 0 mm
23:33 -15.9 °C -16.1 °C 34029.3 hPa Calm   2.3 km/h 98 % 0 mm
23:38 -15.9 °C -16.1 °C 34029.3 hPa Calm     98 % 0 mm
23:43 -15.9 °C -16.1 °C 34029.3 hPa Calm     98 % 0 mm
23:48 -15.9 °C -16.1 °C 34029.3 hPa Calm     98 % 0 mm
23:53 -16 °C -16.1 °C 34029.3 hPa Calm     98 % 0 mm
23:58 -15.9 °C -16.1 °C 34029.3 hPa Calm     98 % 0 mm
Le Gheer Warneton
Courtoisie de Weather Underground - 2.25 mb

Mise a jour : 18/02/2018 20:55:11
Généré par Cumulus 1.9.4 (1099)